Barra do Bugres, Brazil
Current Conditions -  °F | °C
As of 10:14 PM on Monday 24 Nov 2014 (Local Time) from SBCY Reporting Station
Thunderstorm Thunderstorm  
Wind Chill: 77°   Ceiling: 2000
Heat Index: 79°   Visibility: 2.5mi
Dew Point: 70°   Wind: 15mph
Humidity: 78%   Direction: 310°NW
Pressure: 29.88"   Gusts: NA
Location:  15.07°S, 57.18°W
Report Text: SBCY 250114Z 31013KT 4000 -TSRA BKN020 FEW025CB BKN100 25/21 Q1012
Loading
Personal Weather Stations






























Interactive Weather Map New forecast layout! Learn more

10-Day Weather Forecast

Advertisements
Track Severe Weather on mobile